sensor_id;sensor_type;location;lat;lon;timestamp;temperature;humidity
52459;DHT22;38372;52.902;6.024;2023-09-19T00:00:22;13.20;99.90
52459;DHT22;38372;52.902;6.024;2023-09-19T00:02:58;13.20;99.90
52459;DHT22;38372;52.902;6.024;2023-09-19T00:05:33;13.20;99.90
52459;DHT22;38372;52.902;6.024;2023-09-19T00:08:01;13.20;99.90
52459;DHT22;38372;52.902;6.024;2023-09-19T00:10:28;13.20;99.90
52459;DHT22;38372;52.902;6.024;2023-09-19T00:12:57;13.10;99.90
52459;DHT22;38372;52.902;6.024;2023-09-19T00:15:25;13.10;99.90
52459;DHT22;38372;52.902;6.024;2023-09-19T00:17:54;13.10;99.90
52459;DHT22;38372;52.902;6.024;2023-09-19T00:20:20;13.10;99.90
52459;DHT22;38372;52.902;6.024;2023-09-19T00:22:49;13.10;99.90
52459;DHT22;38372;52.902;6.024;2023-09-19T00:25:17;13.10;99.90
52459;DHT22;38372;52.902;6.024;2023-09-19T00:27:44;13.10;99.90
52459;DHT22;38372;52.902;6.024;2023-09-19T00:30:11;13.10;99.90
52459;DHT22;38372;52.902;6.024;2023-09-19T00:32:50;13.00;99.90
52459;DHT22;38372;52.902;6.024;2023-09-19T00:35:23;13.00;99.90
52459;DHT22;38372;52.902;6.024;2023-09-19T00:37:53;13.00;99.90
52459;DHT22;38372;52.902;6.024;2023-09-19T00:40:19;13.00;99.90
52459;DHT22;38372;52.902;6.024;2023-09-19T00:42:47;13.00;99.90
52459;DHT22;38372;52.902;6.024;2023-09-19T00:45:15;12.90;99.90
52459;DHT22;38372;52.902;6.024;2023-09-19T00:47:48;12.90;99.90
52459;DHT22;38372;52.902;6.024;2023-09-19T00:50:21;12.90;99.90
52459;DHT22;38372;52.902;6.024;2023-09-19T00:52:49;12.80;99.90
52459;DHT22;38372;52.902;6.024;2023-09-19T00:55:16;12.80;99.90
52459;DHT22;38372;52.902;6.024;2023-09-19T00:57:45;12.80;99.90
52459;DHT22;38372;52.902;6.024;2023-09-19T01:00:12;12.80;99.90
52459;DHT22;38372;52.902;6.024;2023-09-19T01:02:41;12.70;99.90
52459;DHT22;38372;52.902;6.024;2023-09-19T01:05:09;12.70;99.90
52459;DHT22;38372;52.902;6.024;2023-09-19T01:07:36;12.70;99.90
52459;DHT22;38372;52.902;6.024;2023-09-19T01:10:03;12.70;99.90
52459;DHT22;38372;52.902;6.024;2023-09-19T01:26:29;12.50;99.90
52459;DHT22;38372;52.902;6.024;2023-09-19T01:32:02;12.50;99.90
52459;DHT22;38372;52.902;6.024;2023-09-19T01:34:49;12.40;99.90
52459;DHT22;38372;52.902;6.024;2023-09-19T01:37:20;12.40;99.90
52459;DHT22;38372;52.902;6.024;2023-09-19T01:39:52;12.40;99.90
52459;DHT22;38372;52.902;6.024;2023-09-19T01:42:39;12.40;99.90
52459;DHT22;38372;52.902;6.024;2023-09-19T01:48:33;12.40;99.90
52459;DHT22;38372;52.902;6.024;2023-09-19T01:51:03;12.40;99.90
52459;DHT22;38372;52.902;6.024;2023-09-19T01:53:49;12.30;99.90
52459;DHT22;38372;52.902;6.024;2023-09-19T01:56:24;12.30;99.90
52459;DHT22;38372;52.902;6.024;2023-09-19T01:58:53;12.40;99.90
52459;DHT22;38372;52.902;6.024;2023-09-19T02:01:24;12.40;99.90
52459;DHT22;38372;52.902;6.024;2023-09-19T02:03:50;12.40;99.90
52459;DHT22;38372;52.902;6.024;2023-09-19T02:06:18;12.50;99.90
52459;DHT22;38372;52.902;6.024;2023-09-19T02:08:45;12.50;99.90
52459;DHT22;38372;52.902;6.024;2023-09-19T02:11:13;12.50;99.90
52459;DHT22;38372;52.902;6.024;2023-09-19T02:13:39;12.50;99.90
52459;DHT22;38372;52.902;6.024;2023-09-19T02:16:06;12.50;99.90
52459;DHT22;38372;52.902;6.024;2023-09-19T02:18:34;12.50;99.90
52459;DHT22;38372;52.902;6.024;2023-09-19T02:21:03;12.50;99.90
52459;DHT22;38372;52.902;6.024;2023-09-19T02:23:30;12.50;99.90
52459;DHT22;38372;52.902;6.024;2023-09-19T02:25:56;12.50;99.90
52459;DHT22;38372;52.902;6.024;2023-09-19T02:28:29;12.50;99.90
52459;DHT22;38372;52.902;6.024;2023-09-19T02:30:58;12.50;99.90
52459;DHT22;38372;52.902;6.024;2023-09-19T02:33:24;12.60;99.90
52459;DHT22;38372;52.902;6.024;2023-09-19T02:35:55;12.60;99.90
52459;DHT22;38372;52.902;6.024;2023-09-19T02:38:23;12.70;99.90
52459;DHT22;38372;52.902;6.024;2023-09-19T02:40:50;12.80;99.90
52459;DHT22;38372;52.902;6.024;2023-09-19T02:43:16;12.80;99.90
52459;DHT22;38372;52.902;6.024;2023-09-19T02:45:42;12.90;99.90
52459;DHT22;38372;52.902;6.024;2023-09-19T02:48:08;12.90;99.90
52459;DHT22;38372;52.902;6.024;2023-09-19T02:50:34;13.00;99.90
52459;DHT22;38372;52.902;6.024;2023-09-19T02:53:00;13.00;99.90
52459;DHT22;38372;52.902;6.024;2023-09-19T02:55:26;13.10;99.90
52459;DHT22;38372;52.902;6.024;2023-09-19T02:57:53;13.10;99.90
52459;DHT22;38372;52.902;6.024;2023-09-19T03:00:21;13.10;99.90
52459;DHT22;38372;52.902;6.024;2023-09-19T03:02:54;13.10;99.90
52459;DHT22;38372;52.902;6.024;2023-09-19T03:05:21;13.10;99.90
52459;DHT22;38372;52.902;6.024;2023-09-19T03:07:49;13.00;99.90
52459;DHT22;38372;52.902;6.024;2023-09-19T03:10:20;13.00;99.90
52459;DHT22;38372;52.902;6.024;2023-09-19T03:12:46;13.00;99.90
52459;DHT22;38372;52.902;6.024;2023-09-19T03:15:12;12.90;99.90
52459;DHT22;38372;52.902;6.024;2023-09-19T03:17:44;12.90;99.90
52459;DHT22;38372;52.902;6.024;2023-09-19T03:20:11;12.90;99.90
52459;DHT22;38372;52.902;6.024;2023-09-19T03:22:39;12.90;99.90
52459;DHT22;38372;52.902;6.024;2023-09-19T03:25:07;12.90;99.90
52459;DHT22;38372;52.902;6.024;2023-09-19T03:27:37;12.90;99.90
52459;DHT22;38372;52.902;6.024;2023-09-19T03:30:04;12.90;99.90
52459;DHT22;38372;52.902;6.024;2023-09-19T03:32:48;12.80;99.90
52459;DHT22;38372;52.902;6.024;2023-09-19T03:35:16;12.90;99.90
52459;DHT22;38372;52.902;6.024;2023-09-19T03:37:42;12.90;99.90
52459;DHT22;38372;52.902;6.024;2023-09-19T03:40:11;12.90;99.90
52459;DHT22;38372;52.902;6.024;2023-09-19T03:42:41;13.00;99.90
52459;DHT22;38372;52.902;6.024;2023-09-19T03:45:10;13.10;99.90
52459;DHT22;38372;52.902;6.024;2023-09-19T03:47:39;13.10;99.90
52459;DHT22;38372;52.902;6.024;2023-09-19T03:50:06;13.20;99.90
52459;DHT22;38372;52.902;6.024;2023-09-19T03:52:36;13.30;99.90
52459;DHT22;38372;52.902;6.024;2023-09-19T03:55:02;13.30;99.90
52459;DHT22;38372;52.902;6.024;2023-09-19T03:57:30;13.30;99.90
52459;DHT22;38372;52.902;6.024;2023-09-19T03:59:55;13.40;99.90
52459;DHT22;38372;52.902;6.024;2023-09-19T04:02:22;13.40;99.90
52459;DHT22;38372;52.902;6.024;2023-09-19T04:04:48;13.40;99.90
52459;DHT22;38372;52.902;6.024;2023-09-19T04:07:14;13.40;99.90
52459;DHT22;38372;52.902;6.024;2023-09-19T04:09:40;13.30;99.90
52459;DHT22;38372;52.902;6.024;2023-09-19T04:12:07;13.30;99.90
52459;DHT22;38372;52.902;6.024;2023-09-19T04:14:34;13.30;99.90
52459;DHT22;38372;52.902;6.024;2023-09-19T04:17:00;13.20;99.90
52459;DHT22;38372;52.902;6.024;2023-09-19T04:19:26;13.20;99.90
52459;DHT22;38372;52.902;6.024;2023-09-19T04:21:52;13.20;99.90
52459;DHT22;38372;52.902;6.024;2023-09-19T04:24:17;13.30;99.90
52459;DHT22;38372;52.902;6.024;2023-09-19T04:26:45;13.30;99.90
52459;DHT22;38372;52.902;6.024;2023-09-19T04:29:11;13.30;99.90
52459;DHT22;38372;52.902;6.024;2023-09-19T04:31:40;13.30;99.90
52459;DHT22;38372;52.902;6.024;2023-09-19T04:34:06;13.30;99.90
52459;DHT22;38372;52.902;6.024;2023-09-19T04:36:34;13.20;99.90
52459;DHT22;38372;52.902;6.024;2023-09-19T04:39:04;13.20;99.90
52459;DHT22;38372;52.902;6.024;2023-09-19T04:41:30;13.10;99.90
52459;DHT22;38372;52.902;6.024;2023-09-19T04:43:56;13.10;99.90
52459;DHT22;38372;52.902;6.024;2023-09-19T04:46:22;13.00;99.90
52459;DHT22;38372;52.902;6.024;2023-09-19T04:48:48;13.00;99.90
52459;DHT22;38372;52.902;6.024;2023-09-19T04:51:13;13.00;99.90
52459;DHT22;38372;52.902;6.024;2023-09-19T04:53:40;12.90;99.90
52459;DHT22;38372;52.902;6.024;2023-09-19T04:56:06;12.90;99.90
52459;DHT22;38372;52.902;6.024;2023-09-19T04:58:33;12.90;99.90
52459;DHT22;38372;52.902;6.024;2023-09-19T05:00:59;12.90;99.90
52459;DHT22;38372;52.902;6.024;2023-09-19T05:03:25;12.90;99.90
52459;DHT22;38372;52.902;6.024;2023-09-19T05:05:51;12.90;99.90
52459;DHT22;38372;52.902;6.024;2023-09-19T05:08:16;12.90;99.90
52459;DHT22;38372;52.902;6.024;2023-09-19T05:10:42;13.00;99.90
52459;DHT22;38372;52.902;6.024;2023-09-19T05:13:08;13.00;99.90
52459;DHT22;38372;52.902;6.024;2023-09-19T05:15:34;12.90;99.90
52459;DHT22;38372;52.902;6.024;2023-09-19T05:18:01;12.90;99.90
52459;DHT22;38372;52.902;6.024;2023-09-19T05:20:27;12.90;99.90
52459;DHT22;38372;52.902;6.024;2023-09-19T05:23:02;12.90;99.90
52459;DHT22;38372;52.902;6.024;2023-09-19T05:25:31;12.90;99.90
52459;DHT22;38372;52.902;6.024;2023-09-19T05:27:58;12.90;99.90
52459;DHT22;38372;52.902;6.024;2023-09-19T05:30:25;12.90;99.90
52459;DHT22;38372;52.902;6.024;2023-09-19T05:32:53;12.90;99.90
52459;DHT22;38372;52.902;6.024;2023-09-19T05:35:19;12.90;99.90
52459;DHT22;38372;52.902;6.024;2023-09-19T05:37:47;12.80;99.90
52459;DHT22;38372;52.902;6.024;2023-09-19T05:40:17;12.80;99.90
52459;DHT22;38372;52.902;6.024;2023-09-19T05:42:43;12.80;99.90
52459;DHT22;38372;52.902;6.024;2023-09-19T05:45:10;12.80;99.90
52459;DHT22;38372;52.902;6.024;2023-09-19T05:47:42;12.90;99.90
52459;DHT22;38372;52.902;6.024;2023-09-19T05:50:11;12.90;99.90
52459;DHT22;38372;52.902;6.024;2023-09-19T05:52:37;12.90;99.90
52459;DHT22;38372;52.902;6.024;2023-09-19T05:55:04;12.90;99.90
52459;DHT22;38372;52.902;6.024;2023-09-19T05:57:32;12.90;99.90
52459;DHT22;38372;52.902;6.024;2023-09-19T05:59:58;13.00;99.90
52459;DHT22;38372;52.902;6.024;2023-09-19T06:02:24;13.00;99.90
52459;DHT22;38372;52.902;6.024;2023-09-19T06:04:54;13.10;99.90
52459;DHT22;38372;52.902;6.024;2023-09-19T06:07:22;13.10;99.90
52459;DHT22;38372;52.902;6.024;2023-09-19T06:09:52;13.20;99.90
52459;DHT22;38372;52.902;6.024;2023-09-19T06:12:19;13.30;99.90
52459;DHT22;38372;52.902;6.024;2023-09-19T06:14:45;13.40;99.90
52459;DHT22;38372;52.902;6.024;2023-09-19T06:17:11;13.40;99.90
52459;DHT22;38372;52.902;6.024;2023-09-19T06:19:37;13.50;99.90
52459;DHT22;38372;52.902;6.024;2023-09-19T06:22:03;13.60;99.90
52459;DHT22;38372;52.902;6.024;2023-09-19T06:24:29;13.60;99.90
52459;DHT22;38372;52.902;6.024;2023-09-19T06:26:56;13.60;99.90
52459;DHT22;38372;52.902;6.024;2023-09-19T06:29:22;13.60;99.90
52459;DHT22;38372;52.902;6.024;2023-09-19T06:31:50;13.60;99.90
52459;DHT22;38372;52.902;6.024;2023-09-19T06:34:16;13.60;99.90
52459;DHT22;38372;52.902;6.024;2023-09-19T06:36:43;13.60;99.90
52459;DHT22;38372;52.902;6.024;2023-09-19T06:39:10;13.60;99.90
52459;DHT22;38372;52.902;6.024;2023-09-19T06:41:37;13.60;99.90
52459;DHT22;38372;52.902;6.024;2023-09-19T06:44:05;13.60;99.90
52459;DHT22;38372;52.902;6.024;2023-09-19T06:46:31;13.70;99.90
52459;DHT22;38372;52.902;6.024;2023-09-19T06:49:03;13.80;99.90
52459;DHT22;38372;52.902;6.024;2023-09-19T06:51:32;13.90;99.90
52459;DHT22;38372;52.902;6.024;2023-09-19T06:54:01;14.00;99.90
52459;DHT22;38372;52.902;6.024;2023-09-19T06:56:27;14.00;99.90
52459;DHT22;38372;52.902;6.024;2023-09-19T06:58:53;14.10;99.90
52459;DHT22;38372;52.902;6.024;2023-09-19T07:01:18;14.10;99.90
52459;DHT22;38372;52.902;6.024;2023-09-19T07:03:44;14.10;99.90
52459;DHT22;38372;52.902;6.024;2023-09-19T07:06:11;14.10;99.90
52459;DHT22;38372;52.902;6.024;2023-09-19T07:08:37;14.10;99.90
52459;DHT22;38372;52.902;6.024;2023-09-19T07:11:04;14.20;99.90
52459;DHT22;38372;52.902;6.024;2023-09-19T07:13:32;14.10;99.90
52459;DHT22;38372;52.902;6.024;2023-09-19T07:16:01;14.10;99.90
52459;DHT22;38372;52.902;6.024;2023-09-19T07:18:26;14.20;99.90
52459;DHT22;38372;52.902;6.024;2023-09-19T07:21:01;14.30;99.90
52459;DHT22;38372;52.902;6.024;2023-09-19T07:23:34;14.40;99.90
52459;DHT22;38372;52.902;6.024;2023-09-19T07:26:03;14.50;99.90
52459;DHT22;38372;52.902;6.024;2023-09-19T07:28:31;14.60;99.90
52459;DHT22;38372;52.902;6.024;2023-09-19T07:30:56;14.80;99.90
52459;DHT22;38372;52.902;6.024;2023-09-19T07:33:23;14.90;99.90
52459;DHT22;38372;52.902;6.024;2023-09-19T07:35:52;15.00;99.90
52459;DHT22;38372;52.902;6.024;2023-09-19T07:38:18;15.00;99.90
52459;DHT22;38372;52.902;6.024;2023-09-19T07:40:44;14.90;99.90
52459;DHT22;38372;52.902;6.024;2023-09-19T07:43:09;14.90;99.90
52459;DHT22;38372;52.902;6.024;2023-09-19T07:45:35;14.90;99.90
52459;DHT22;38372;52.902;6.024;2023-09-19T07:48:02;15.00;99.90
52459;DHT22;38372;52.902;6.024;2023-09-19T07:50:30;15.00;99.90
52459;DHT22;38372;52.902;6.024;2023-09-19T07:52:56;15.00;99.90
52459;DHT22;38372;52.902;6.024;2023-09-19T07:55:22;15.10;99.90
52459;DHT22;38372;52.902;6.024;2023-09-19T07:57:51;15.20;99.90
52459;DHT22;38372;52.902;6.024;2023-09-19T08:00:17;15.30;99.90
52459;DHT22;38372;52.902;6.024;2023-09-19T08:02:43;15.40;99.90
52459;DHT22;38372;52.902;6.024;2023-09-19T08:05:10;15.40;99.90
52459;DHT22;38372;52.902;6.024;2023-09-19T08:07:37;15.60;99.90
52459;DHT22;38372;52.902;6.024;2023-09-19T08:10:04;15.80;99.90
52459;DHT22;38372;52.902;6.024;2023-09-19T08:12:33;16.20;99.90
52459;DHT22;38372;52.902;6.024;2023-09-19T08:15:03;16.50;99.90
52459;DHT22;38372;52.902;6.024;2023-09-19T08:17:34;16.70;99.90
52459;DHT22;38372;52.902;6.024;2023-09-19T08:20:01;16.90;99.90
52459;DHT22;38372;52.902;6.024;2023-09-19T08:22:28;17.00;99.90
52459;DHT22;38372;52.902;6.024;2023-09-19T08:24:54;17.10;99.90
52459;DHT22;38372;52.902;6.024;2023-09-19T08:27:21;17.20;99.90
52459;DHT22;38372;52.902;6.024;2023-09-19T08:29:47;17.30;99.90
52459;DHT22;38372;52.902;6.024;2023-09-19T08:32:13;17.30;99.90
52459;DHT22;38372;52.902;6.024;2023-09-19T08:34:40;17.40;99.90
52459;DHT22;38372;52.902;6.024;2023-09-19T08:37:05;17.30;99.90
52459;DHT22;38372;52.902;6.024;2023-09-19T08:39:31;17.20;99.90
52459;DHT22;38372;52.902;6.024;2023-09-19T08:42:01;17.20;99.90
52459;DHT22;38372;52.902;6.024;2023-09-19T08:44:28;17.20;99.90
52459;DHT22;38372;52.902;6.024;2023-09-19T08:47:10;17.20;99.90
52459;DHT22;38372;52.902;6.024;2023-09-19T08:50:05;17.40;99.90
52459;DHT22;38372;52.902;6.024;2023-09-19T08:52:42;17.60;99.90
52459;DHT22;38372;52.902;6.024;2023-09-19T08:55:12;17.80;99.90
52459;DHT22;38372;52.902;6.024;2023-09-19T08:57:38;17.80;99.90
52459;DHT22;38372;52.902;6.024;2023-09-19T09:00:08;18.00;99.90
52459;DHT22;38372;52.902;6.024;2023-09-19T09:02:41;18.20;99.90
52459;DHT22;38372;52.902;6.024;2023-09-19T09:05:11;18.10;99.90
52459;DHT22;38372;52.902;6.024;2023-09-19T09:07:38;18.00;99.90
52459;DHT22;38372;52.902;6.024;2023-09-19T09:10:05;17.80;99.90
52459;DHT22;38372;52.902;6.024;2023-09-19T09:12:31;17.70;99.90
52459;DHT22;38372;52.902;6.024;2023-09-19T09:14:58;17.60;99.90
52459;DHT22;38372;52.902;6.024;2023-09-19T09:17:24;17.50;99.90
52459;DHT22;38372;52.902;6.024;2023-09-19T09:19:53;17.40;99.90
52459;DHT22;38372;52.902;6.024;2023-09-19T09:22:19;17.50;99.90
52459;DHT22;38372;52.902;6.024;2023-09-19T09:24:55;17.80;99.90
52459;DHT22;38372;52.902;6.024;2023-09-19T09:27:24;18.10;99.90
52459;DHT22;38372;52.902;6.024;2023-09-19T09:29:51;18.40;99.90
52459;DHT22;38372;52.902;6.024;2023-09-19T09:34:56;18.60;99.90
52459;DHT22;38372;52.902;6.024;2023-09-19T09:37:22;19.00;99.90
52459;DHT22;38372;52.902;6.024;2023-09-19T09:40:01;19.30;99.90
52459;DHT22;38372;52.902;6.024;2023-09-19T09:42:42;19.70;99.90
52459;DHT22;38372;52.902;6.024;2023-09-19T09:45:22;19.90;99.90
52459;DHT22;38372;52.902;6.024;2023-09-19T09:48:03;20.20;99.90
52459;DHT22;38372;52.902;6.024;2023-09-19T09:50:31;20.60;99.90
52459;DHT22;38372;52.902;6.024;2023-09-19T09:53:26;20.60;99.90
52459;DHT22;38372;52.902;6.024;2023-09-19T09:58:25;20.00;99.90
52459;DHT22;38372;52.902;6.024;2023-09-19T10:00:58;20.00;99.90
52459;DHT22;38372;52.902;6.024;2023-09-19T10:03:35;20.30;99.90
52459;DHT22;38372;52.902;6.024;2023-09-19T10:06:06;20.50;99.90
52459;DHT22;38372;52.902;6.024;2023-09-19T10:09:04;20.20;99.90
52459;DHT22;38372;52.902;6.024;2023-09-19T10:11:47;19.70;99.90
52459;DHT22;38372;52.902;6.024;2023-09-19T10:14:15;19.50;99.90
52459;DHT22;38372;52.902;6.024;2023-09-19T10:16:48;19.50;99.90
52459;DHT22;38372;52.902;6.024;2023-09-19T10:19:42;19.50;99.90
52459;DHT22;38372;52.902;6.024;2023-09-19T10:22:13;19.10;99.90
52459;DHT22;38372;52.902;6.024;2023-09-19T10:24:47;18.60;99.90
52459;DHT22;38372;52.902;6.024;2023-09-19T10:27:18;18.40;99.90
52459;DHT22;38372;52.902;6.024;2023-09-19T10:29:45;18.60;99.90
52459;DHT22;38372;52.902;6.024;2023-09-19T10:32:16;19.10;99.90
52459;DHT22;38372;52.902;6.024;2023-09-19T10:34:46;19.50;99.90
52459;DHT22;38372;52.902;6.024;2023-09-19T10:37:13;19.60;99.90
52459;DHT22;38372;52.902;6.024;2023-09-19T10:39:40;19.50;99.90
52459;DHT22;38372;52.902;6.024;2023-09-19T10:42:11;19.30;99.90
52459;DHT22;38372;52.902;6.024;2023-09-19T10:44:43;19.20;99.90
52459;DHT22;38372;52.902;6.024;2023-09-19T10:47:10;19.10;99.90
52459;DHT22;38372;52.902;6.024;2023-09-19T10:49:44;19.00;99.90
52459;DHT22;38372;52.902;6.024;2023-09-19T10:52:13;18.90;99.90
52459;DHT22;38372;52.902;6.024;2023-09-19T10:54:47;18.70;99.90
52459;DHT22;38372;52.902;6.024;2023-09-19T10:57:22;18.40;99.90
52459;DHT22;38372;52.902;6.024;2023-09-19T11:00:04;18.00;99.90
52459;DHT22;38372;52.902;6.024;2023-09-19T11:05:41;17.60;99.90
52459;DHT22;38372;52.902;6.024;2023-09-19T11:08:08;17.70;99.90
52459;DHT22;38372;52.902;6.024;2023-09-19T11:10:48;17.90;99.90
52459;DHT22;38372;52.902;6.024;2023-09-19T11:24:34;18.50;99.90
52459;DHT22;38372;52.902;6.024;2023-09-19T11:27:15;18.40;99.90
52459;DHT22;38372;52.902;6.024;2023-09-19T11:29:43;18.20;99.90
52459;DHT22;38372;52.902;6.024;2023-09-19T11:32:10;18.20;99.90
52459;DHT22;38372;52.902;6.024;2023-09-19T11:39:39;17.80;99.90
52459;DHT22;38372;52.902;6.024;2023-09-19T11:42:41;17.70;99.90
52459;DHT22;38372;52.902;6.024;2023-09-19T11:45:07;17.60;99.90
52459;DHT22;38372;52.902;6.024;2023-09-19T11:47:33;17.60;99.90
52459;DHT22;38372;52.902;6.024;2023-09-19T11:50:01;17.70;99.90
52459;DHT22;38372;52.902;6.024;2023-09-19T11:52:28;17.90;99.90
52459;DHT22;38372;52.902;6.024;2023-09-19T11:55:01;17.90;99.90
52459;DHT22;38372;52.902;6.024;2023-09-19T11:57:28;17.80;99.90
52459;DHT22;38372;52.902;6.024;2023-09-19T11:59:55;17.80;99.90
52459;DHT22;38372;52.902;6.024;2023-09-19T12:02:39;17.70;99.90
52459;DHT22;38372;52.902;6.024;2023-09-19T12:05:08;17.60;99.90
52459;DHT22;38372;52.902;6.024;2023-09-19T12:07:43;17.70;99.90
52459;DHT22;38372;52.902;6.024;2023-09-19T12:10:11;17.70;99.90
52459;DHT22;38372;52.902;6.024;2023-09-19T12:12:40;17.70;99.90
52459;DHT22;38372;52.902;6.024;2023-09-19T12:15:08;17.70;99.90
52459;DHT22;38372;52.902;6.024;2023-09-19T12:17:40;17.90;99.90
52459;DHT22;38372;52.902;6.024;2023-09-19T12:20:09;18.20;99.90
52459;DHT22;38372;52.902;6.024;2023-09-19T12:22:46;18.40;99.90
52459;DHT22;38372;52.902;6.024;2023-09-19T12:25:12;18.60;99.90
52459;DHT22;38372;52.902;6.024;2023-09-19T12:27:46;18.70;99.90
52459;DHT22;38372;52.902;6.024;2023-09-19T12:30:13;18.70;99.90
52459;DHT22;38372;52.902;6.024;2023-09-19T12:32:43;18.70;99.90
52459;DHT22;38372;52.902;6.024;2023-09-19T12:35:10;18.60;99.90
52459;DHT22;38372;52.902;6.024;2023-09-19T12:37:45;18.60;99.90
52459;DHT22;38372;52.902;6.024;2023-09-19T12:40:15;18.40;99.90
52459;DHT22;38372;52.902;6.024;2023-09-19T12:42:48;18.20;99.90
52459;DHT22;38372;52.902;6.024;2023-09-19T12:45:15;18.10;99.90
52459;DHT22;38372;52.902;6.024;2023-09-19T12:48:17;18.00;99.90
52459;DHT22;38372;52.902;6.024;2023-09-19T12:53:43;17.90;99.90
52459;DHT22;38372;52.902;6.024;2023-09-19T12:56:14;18.00;99.90
52459;DHT22;38372;52.902;6.024;2023-09-19T12:58:58;17.90;99.90
52459;DHT22;38372;52.902;6.024;2023-09-19T13:01:29;17.90;99.90
52459;DHT22;38372;52.902;6.024;2023-09-19T13:06:44;17.80;99.90
52459;DHT22;38372;52.902;6.024;2023-09-19T13:09:11;17.70;99.90
52459;DHT22;38372;52.902;6.024;2023-09-19T13:11:38;17.70;99.90
52459;DHT22;38372;52.902;6.024;2023-09-19T13:14:17;17.70;99.90
52459;DHT22;38372;52.902;6.024;2023-09-19T13:16:54;17.80;99.90
52459;DHT22;38372;52.902;6.024;2023-09-19T13:19:40;17.70;99.90
52459;DHT22;38372;52.902;6.024;2023-09-19T13:22:44;17.70;99.90
52459;DHT22;38372;52.902;6.024;2023-09-19T13:25:21;17.60;99.90
52459;DHT22;38372;52.902;6.024;2023-09-19T13:27:54;17.60;99.90
52459;DHT22;38372;52.902;6.024;2023-09-19T13:30:23;17.70;99.90
52459;DHT22;38372;52.902;6.024;2023-09-19T13:33:05;17.80;99.90
52459;DHT22;38372;52.902;6.024;2023-09-19T13:35:32;17.90;99.90
52459;DHT22;38372;52.902;6.024;2023-09-19T13:37:58;18.00;99.90
52459;DHT22;38372;52.902;6.024;2023-09-19T13:40:24;18.10;99.90
52459;DHT22;38372;52.902;6.024;2023-09-19T13:43:01;18.20;99.90
52459;DHT22;38372;52.902;6.024;2023-09-19T13:45:27;18.20;99.90
52459;DHT22;38372;52.902;6.024;2023-09-19T13:47:56;18.30;99.90
52459;DHT22;38372;52.902;6.024;2023-09-19T13:50:22;18.30;99.90
52459;DHT22;38372;52.902;6.024;2023-09-19T13:52:52;18.20;99.90
52459;DHT22;38372;52.902;6.024;2023-09-19T13:55:19;18.20;99.90
52459;DHT22;38372;52.902;6.024;2023-09-19T13:57:48;18.20;99.90
52459;DHT22;38372;52.902;6.024;2023-09-19T14:00:20;18.20;99.90
52459;DHT22;38372;52.902;6.024;2023-09-19T14:02:46;18.10;99.90
52459;DHT22;38372;52.902;6.024;2023-09-19T14:05:17;18.10;99.90
52459;DHT22;38372;52.902;6.024;2023-09-19T14:07:44;18.10;99.90
52459;DHT22;38372;52.902;6.024;2023-09-19T14:10:11;18.00;99.90
52459;DHT22;38372;52.902;6.024;2023-09-19T14:12:38;18.00;99.90
52459;DHT22;38372;52.902;6.024;2023-09-19T14:15:07;18.00;99.90
52459;DHT22;38372;52.902;6.024;2023-09-19T14:17:33;18.00;99.90
52459;DHT22;38372;52.902;6.024;2023-09-19T14:19:59;18.00;99.90
52459;DHT22;38372;52.902;6.024;2023-09-19T14:22:25;18.00;99.90
52459;DHT22;38372;52.902;6.024;2023-09-19T14:24:51;18.00;99.90
52459;DHT22;38372;52.902;6.024;2023-09-19T14:27:18;18.00;99.90
52459;DHT22;38372;52.902;6.024;2023-09-19T14:29:44;18.00;99.90
52459;DHT22;38372;52.902;6.024;2023-09-19T14:32:10;18.00;99.90
52459;DHT22;38372;52.902;6.024;2023-09-19T14:34:36;17.90;99.90
52459;DHT22;38372;52.902;6.024;2023-09-19T14:37:07;17.90;99.90
52459;DHT22;38372;52.902;6.024;2023-09-19T14:39:33;17.80;99.90
52459;DHT22;38372;52.902;6.024;2023-09-19T14:41:59;17.70;99.90
52459;DHT22;38372;52.902;6.024;2023-09-19T14:44:25;17.60;99.90
52459;DHT22;38372;52.902;6.024;2023-09-19T14:46:51;17.60;99.90
52459;DHT22;38372;52.902;6.024;2023-09-19T14:49:17;17.50;99.90
52459;DHT22;38372;52.902;6.024;2023-09-19T14:51:42;17.50;99.90
52459;DHT22;38372;52.902;6.024;2023-09-19T14:54:09;17.50;99.90
52459;DHT22;38372;52.902;6.024;2023-09-19T14:56:35;17.60;99.90
52459;DHT22;38372;52.902;6.024;2023-09-19T14:59:06;17.50;99.90
52459;DHT22;38372;52.902;6.024;2023-09-19T15:01:33;17.50;99.90
52459;DHT22;38372;52.902;6.024;2023-09-19T15:04:03;17.40;99.90
52459;DHT22;38372;52.902;6.024;2023-09-19T15:06:32;17.40;99.90
52459;DHT22;38372;52.902;6.024;2023-09-19T15:09:02;17.30;99.90
52459;DHT22;38372;52.902;6.024;2023-09-19T15:11:33;17.20;99.90
52459;DHT22;38372;52.902;6.024;2023-09-19T15:13:59;17.20;99.90
52459;DHT22;38372;52.902;6.024;2023-09-19T15:16:36;17.10;99.90
52459;DHT22;38372;52.902;6.024;2023-09-19T15:19:02;17.10;99.90
52459;DHT22;38372;52.902;6.024;2023-09-19T15:21:31;17.00;99.90
52459;DHT22;38372;52.902;6.024;2023-09-19T15:23:59;16.90;99.90
52459;DHT22;38372;52.902;6.024;2023-09-19T15:26:26;16.90;99.90
52459;DHT22;38372;52.902;6.024;2023-09-19T15:28:52;16.70;99.90
52459;DHT22;38372;52.902;6.024;2023-09-19T15:31:21;16.70;99.90
52459;DHT22;38372;52.902;6.024;2023-09-19T15:33:49;16.60;99.90
52459;DHT22;38372;52.902;6.024;2023-09-19T15:36:16;16.60;99.90
52459;DHT22;38372;52.902;6.024;2023-09-19T15:39:00;16.60;99.90
52459;DHT22;38372;52.902;6.024;2023-09-19T15:41:32;16.70;99.90
52459;DHT22;38372;52.902;6.024;2023-09-19T15:44:02;16.60;99.90
52459;DHT22;38372;52.902;6.024;2023-09-19T15:46:49;16.60;99.90
52459;DHT22;38372;52.902;6.024;2023-09-19T15:49:20;16.60;99.90
52459;DHT22;38372;52.902;6.024;2023-09-19T15:52:02;16.60;99.90
52459;DHT22;38372;52.902;6.024;2023-09-19T15:54:29;16.50;99.90
52459;DHT22;38372;52.902;6.024;2023-09-19T15:56:58;16.50;99.90
52459;DHT22;38372;52.902;6.024;2023-09-19T15:59:44;16.40;99.90
52459;DHT22;38372;52.902;6.024;2023-09-19T16:02:14;16.40;99.90
52459;DHT22;38372;52.902;6.024;2023-09-19T16:04:43;16.30;99.90
52459;DHT22;38372;52.902;6.024;2023-09-19T16:07:10;16.30;99.90
52459;DHT22;38372;52.902;6.024;2023-09-19T16:09:41;16.20;99.90
52459;DHT22;38372;52.902;6.024;2023-09-19T16:12:09;16.20;99.90
52459;DHT22;38372;52.902;6.024;2023-09-19T16:14:39;16.20;99.90
52459;DHT22;38372;52.902;6.024;2023-09-19T16:17:05;16.10;99.90
52459;DHT22;38372;52.902;6.024;2023-09-19T16:19:36;16.00;99.90
52459;DHT22;38372;52.902;6.024;2023-09-19T16:22:02;16.00;99.90
52459;DHT22;38372;52.902;6.024;2023-09-19T16:24:30;16.00;99.90
52459;DHT22;38372;52.902;6.024;2023-09-19T16:27:14;16.00;99.90
52459;DHT22;38372;52.902;6.024;2023-09-19T16:29:44;16.00;99.90
52459;DHT22;38372;52.902;6.024;2023-09-19T16:32:15;15.90;99.90
52459;DHT22;38372;52.902;6.024;2023-09-19T16:34:45;15.90;99.90